createdAt,value
2018-06-13T00:00:45.033Z,15.10
2018-06-13T00:03:13.151Z,15.00
2018-06-13T00:05:42.158Z,15.00
2018-06-13T00:08:10.854Z,14.90
2018-06-13T00:10:38.630Z,14.90
2018-06-13T00:13:06.454Z,14.90
2018-06-13T00:15:34.258Z,14.90
2018-06-13T00:18:02.011Z,14.70
2018-06-13T00:20:29.691Z,14.80
2018-06-13T00:22:57.516Z,14.80
2018-06-13T00:25:25.234Z,14.80
2018-06-13T00:27:52.982Z,14.80
2018-06-13T00:30:20.746Z,14.60
2018-06-13T00:32:48.447Z,14.60
2018-06-13T00:35:16.196Z,14.40
2018-06-13T00:37:43.891Z,14.50
2018-06-13T00:40:11.789Z,14.30
2018-06-13T00:42:39.543Z,14.30
2018-06-13T00:45:07.322Z,14.20
2018-06-13T00:47:35.026Z,14.20
2018-06-13T00:50:02.779Z,14.10
2018-06-13T00:52:30.542Z,14.00
2018-06-13T00:54:58.340Z,13.90
2018-06-13T00:57:26.074Z,13.90
2018-06-13T00:59:53.829Z,13.90
2018-06-13T01:02:21.591Z,13.90
2018-06-13T01:04:49.360Z,13.80
2018-06-13T01:07:17.133Z,13.90
2018-06-13T01:09:44.908Z,13.90
2018-06-13T01:14:40.279Z,13.90
2018-06-13T01:17:08.054Z,13.90
2018-06-13T01:19:35.798Z,13.90
2018-06-13T01:22:03.774Z,13.90
2018-06-13T01:24:31.450Z,14.00
2018-06-13T01:26:59.706Z,14.10
2018-06-13T01:29:27.607Z,14.00
2018-06-13T01:31:55.379Z,14.00
2018-06-13T01:34:23.129Z,14.10
2018-06-13T01:36:50.891Z,14.20
2018-06-13T01:39:18.617Z,14.20
2018-06-13T01:41:46.334Z,14.20
2018-06-13T01:44:14.165Z,14.20
2018-06-13T01:46:41.850Z,14.10
2018-06-13T01:49:09.615Z,14.20
2018-06-13T01:51:37.352Z,14.20
2018-06-13T01:54:05.094Z,14.20
2018-06-13T01:56:32.807Z,14.20
2018-06-13T01:59:00.552Z,14.20
2018-06-13T02:01:28.219Z,14.10
2018-06-13T02:03:55.942Z,14.00
2018-06-13T02:06:23.663Z,14.10
2018-06-13T02:08:51.505Z,13.90
2018-06-13T02:11:19.248Z,13.90
2018-06-13T02:13:46.987Z,13.90
2018-06-13T02:16:14.739Z,13.90
2018-06-13T02:18:42.505Z,13.90
2018-06-13T02:21:10.251Z,14.00
2018-06-13T02:23:38.027Z,14.00
2018-06-13T02:26:05.766Z,14.00
2018-06-13T02:28:33.593Z,14.00
2018-06-13T02:31:01.387Z,13.90
2018-06-13T02:33:29.237Z,13.90
2018-06-13T02:35:57.024Z,13.80
2018-06-13T02:38:24.751Z,13.80
2018-06-13T02:40:52.482Z,13.80
2018-06-13T02:43:20.184Z,13.80
2018-06-13T02:45:47.955Z,13.60
2018-06-13T02:48:15.678Z,13.70
2018-06-13T02:50:43.500Z,13.50
2018-06-13T02:53:11.226Z,13.50
2018-06-13T02:55:39.046Z,13.50
2018-06-13T02:58:06.769Z,13.40
2018-06-13T03:00:34.489Z,13.60
2018-06-13T03:03:02.223Z,13.50
2018-06-13T03:05:30.015Z,13.50
2018-06-13T03:07:57.852Z,13.50
2018-06-13T03:10:25.582Z,13.60
2018-06-13T03:12:53.483Z,13.50
2018-06-13T03:15:21.160Z,13.60
2018-06-13T03:17:50.857Z,13.60
2018-06-13T03:20:18.742Z,13.50
2018-06-13T03:22:46.440Z,13.50
2018-06-13T03:25:14.334Z,13.40
2018-06-13T03:27:42.090Z,13.50
2018-06-13T03:30:09.891Z,13.40
2018-06-13T03:32:37.842Z,13.60
2018-06-13T03:35:05.609Z,13.50
2018-06-13T03:37:33.504Z,13.50
2018-06-13T03:40:01.259Z,13.60
2018-06-13T03:42:29.013Z,13.50
2018-06-13T03:44:56.791Z,13.50
2018-06-13T03:47:24.521Z,13.50
2018-06-13T03:49:52.485Z,13.40
2018-06-13T03:52:20.199Z,13.40
2018-06-13T03:54:47.994Z,13.40
2018-06-13T03:57:15.725Z,13.40
2018-06-13T03:59:43.490Z,13.40
2018-06-13T04:02:11.224Z,13.60
2018-06-13T04:04:39.100Z,13.60
2018-06-13T04:07:06.829Z,13.70
2018-06-13T04:09:34.583Z,13.60
2018-06-13T04:12:02.360Z,13.60
2018-06-13T04:14:30.096Z,13.50
2018-06-13T04:16:57.838Z,13.50
2018-06-13T04:19:25.525Z,13.60
2018-06-13T04:21:53.274Z,13.60
2018-06-13T04:24:20.964Z,13.60
2018-06-13T04:26:48.819Z,13.60
2018-06-13T04:29:16.501Z,13.40
2018-06-13T04:31:44.310Z,13.40
2018-06-13T04:34:12.015Z,13.30
2018-06-13T04:36:39.733Z,13.20
2018-06-13T04:39:08.825Z,13.20
2018-06-13T04:41:36.586Z,13.10
2018-06-13T04:44:04.385Z,13.10
2018-06-13T04:46:32.097Z,13.00
2018-06-13T04:48:59.816Z,13.10
2018-06-13T04:51:27.527Z,13.00
2018-06-13T04:53:55.337Z,13.10
2018-06-13T04:56:23.033Z,13.10
2018-06-13T04:58:50.770Z,13.10
2018-06-13T05:01:18.506Z,13.10
2018-06-13T05:03:46.271Z,13.20
2018-06-13T05:06:14.191Z,13.20
2018-06-13T05:08:41.907Z,13.20
2018-06-13T05:11:09.639Z,13.00
2018-06-13T05:13:37.298Z,13.00
2018-06-13T05:16:05.058Z,13.10
2018-06-13T05:18:32.829Z,13.20
2018-06-13T05:21:00.634Z,13.20
2018-06-13T05:23:28.394Z,13.20
2018-06-13T05:25:56.170Z,13.20
2018-06-13T05:28:23.932Z,13.30
2018-06-13T05:30:51.657Z,13.30
2018-06-13T05:33:19.339Z,13.40
2018-06-13T05:35:47.122Z,13.40
2018-06-13T05:38:14.873Z,13.40
2018-06-13T05:40:42.651Z,13.40
2018-06-13T05:43:10.391Z,13.50
2018-06-13T05:45:38.097Z,13.40
2018-06-13T05:48:05.914Z,13.40
2018-06-13T05:50:33.655Z,13.30
2018-06-13T05:53:01.420Z,13.30
2018-06-13T05:55:29.154Z,13.20
2018-06-13T05:57:56.864Z,13.20
2018-06-13T06:00:24.796Z,13.10
2018-06-13T06:02:52.650Z,13.10
2018-06-13T06:05:20.438Z,13.10
2018-06-13T06:07:48.224Z,13.10
2018-06-13T06:10:16.019Z,13.20
2018-06-13T06:12:43.780Z,13.20
2018-06-13T06:15:11.514Z,13.20
2018-06-13T06:17:39.267Z,13.20
2018-06-13T06:20:07.303Z,13.20
2018-06-13T06:22:35.133Z,13.20
2018-06-13T06:25:03.121Z,13.30
2018-06-13T06:27:30.915Z,13.30
2018-06-13T06:29:58.645Z,13.30
2018-06-13T06:32:26.360Z,13.30
2018-06-13T06:34:54.210Z,13.30
2018-06-13T06:37:21.913Z,13.30
2018-06-13T06:39:49.609Z,13.30
2018-06-13T06:42:17.328Z,13.30
2018-06-13T06:44:45.094Z,13.20
2018-06-13T06:47:12.809Z,13.20
2018-06-13T06:49:40.568Z,13.20
2018-06-13T06:54:35.871Z,13.20
2018-06-13T06:57:03.590Z,13.10
2018-06-13T06:59:31.434Z,13.20
2018-06-13T07:01:59.216Z,13.20
2018-06-13T07:04:26.997Z,13.30
2018-06-13T07:06:54.755Z,13.30
2018-06-13T07:09:22.622Z,13.40
2018-06-13T07:11:50.311Z,13.50
2018-06-13T07:14:18.098Z,13.50
2018-06-13T07:16:45.848Z,13.60
2018-06-13T07:19:14.947Z,13.70
2018-06-13T07:24:10.466Z,13.90
2018-06-13T07:26:38.174Z,13.90
2018-06-13T07:29:05.944Z,14.00
2018-06-13T07:31:33.701Z,14.10
2018-06-13T07:34:01.514Z,14.00
2018-06-13T07:36:29.267Z,14.00
2018-06-13T07:38:56.967Z,14.10
2018-06-13T07:41:24.764Z,14.30
2018-06-13T07:43:52.521Z,14.30
2018-06-13T07:46:20.257Z,14.40
2018-06-13T07:48:47.957Z,14.50
2018-06-13T07:51:15.763Z,14.60
2018-06-13T07:53:43.538Z,14.70
2018-06-13T07:56:11.339Z,14.90
2018-06-13T07:58:39.102Z,15.00
2018-06-13T08:01:06.814Z,15.30
2018-06-13T08:03:34.549Z,15.50
2018-06-13T08:06:02.310Z,15.50
2018-06-13T08:08:30.126Z,15.20
2018-06-13T08:10:57.782Z,15.40
2018-06-13T08:13:25.514Z,15.50
2018-06-13T08:15:53.242Z,15.40
2018-06-13T08:18:20.974Z,15.60
2018-06-13T08:20:48.736Z,15.90
2018-06-13T08:23:16.486Z,16.10
2018-06-13T08:25:44.231Z,16.10
2018-06-13T08:28:11.941Z,16.30
2018-06-13T08:30:39.746Z,16.50
2018-06-13T08:33:07.446Z,16.70
2018-06-13T08:35:35.199Z,16.80
2018-06-13T08:38:02.894Z,16.70
2018-06-13T08:40:30.770Z,16.70
2018-06-13T08:42:58.553Z,16.80
2018-06-13T08:45:26.318Z,16.60
2018-06-13T08:47:54.089Z,16.30
2018-06-13T08:50:21.833Z,16.20
2018-06-13T08:52:49.585Z,16.00
2018-06-13T08:55:17.322Z,16.10
2018-06-13T08:57:45.040Z,16.10
2018-06-13T09:00:12.767Z,16.00
2018-06-13T09:02:40.617Z,16.20
2018-06-13T09:05:08.359Z,16.60
2018-06-13T09:07:36.160Z,16.90
2018-06-13T09:10:03.968Z,17.10
2018-06-13T09:12:32.177Z,17.10
2018-06-13T09:14:59.938Z,17.50
2018-06-13T09:17:27.697Z,17.60
2018-06-13T09:19:55.396Z,17.50
2018-06-13T09:22:23.298Z,17.70
2018-06-13T09:24:50.979Z,18.00
2018-06-13T09:27:18.828Z,18.10
2018-06-13T09:29:46.541Z,18.20
2018-06-13T09:34:42.016Z,18.60
2018-06-13T09:37:09.774Z,18.30
2018-06-13T09:39:37.457Z,18.20
2018-06-13T09:42:05.209Z,18.10
2018-06-13T09:44:32.953Z,18.20
2018-06-13T09:47:06.902Z,17.70
2018-06-13T09:49:28.634Z,17.50
2018-06-13T09:51:56.432Z,17.50
2018-06-13T09:54:24.169Z,17.10
2018-06-13T09:56:51.939Z,16.70
2018-06-13T09:59:20.327Z,16.40
2018-06-13T10:02:19.918Z,16.10
2018-06-13T10:04:48.123Z,16.30
2018-06-13T10:07:15.957Z,16.10
2018-06-13T10:09:43.783Z,16.10
2018-06-13T10:12:11.582Z,16.10
2018-06-13T10:14:39.404Z,16.20
2018-06-13T10:17:07.339Z,16.00
2018-06-13T10:19:35.260Z,16.10
2018-06-13T10:22:03.028Z,16.30
2018-06-13T10:24:30.906Z,16.30
2018-06-13T10:26:58.828Z,16.30
2018-06-13T10:29:26.591Z,16.40
2018-06-13T10:31:54.350Z,16.40
2018-06-13T10:34:22.126Z,16.00
2018-06-13T10:36:49.955Z,15.60
2018-06-13T10:39:17.921Z,15.70
2018-06-13T10:41:45.758Z,15.70
2018-06-13T10:44:15.428Z,15.80
2018-06-13T10:46:43.283Z,16.10
2018-06-13T10:49:11.515Z,16.40
2018-06-13T10:51:39.447Z,16.60
2018-06-13T10:54:07.428Z,16.80
2018-06-13T10:56:35.349Z,16.60
2018-06-13T10:59:03.539Z,16.60
2018-06-13T11:01:31.285Z,16.90
2018-06-13T11:03:59.010Z,17.10
2018-06-13T11:06:26.843Z,16.90
2018-06-13T11:08:54.658Z,16.80
2018-06-13T11:11:22.546Z,17.00
2018-06-13T11:13:50.277Z,17.00
2018-06-13T11:16:18.046Z,16.90
2018-06-13T11:18:45.805Z,16.70
2018-06-13T11:21:13.546Z,16.50
2018-06-13T11:23:41.355Z,16.10
2018-06-13T11:26:09.044Z,16.00
2018-06-13T11:28:36.828Z,15.80
2018-06-13T11:31:04.558Z,15.70
2018-06-13T11:33:32.418Z,15.60
2018-06-13T11:36:00.162Z,15.50
2018-06-13T11:38:28.658Z,15.10
2018-06-13T11:40:56.333Z,15.00
2018-06-13T11:43:24.964Z,15.00
2018-06-13T11:45:52.670Z,15.30
2018-06-13T11:48:20.409Z,15.30
2018-06-13T11:50:48.314Z,15.20
2018-06-13T11:53:16.052Z,15.10
2018-06-13T11:55:43.770Z,15.20
2018-06-13T11:58:11.942Z,15.40
2018-06-13T12:00:39.731Z,15.50
2018-06-13T12:03:07.486Z,15.50
2018-06-13T12:05:35.316Z,15.40
2018-06-13T12:10:30.811Z,15.70
2018-06-13T12:12:58.692Z,15.90
2018-06-13T12:15:26.530Z,15.90
2018-06-13T12:17:54.287Z,16.20
2018-06-13T12:20:23.037Z,16.40
2018-06-13T12:22:50.717Z,16.70
2018-06-13T12:25:19.424Z,17.10
2018-06-13T12:27:47.322Z,17.20
2018-06-13T12:30:15.158Z,17.30
2018-06-13T12:32:42.906Z,17.00
2018-06-13T12:35:10.841Z,17.20
2018-06-13T12:37:38.866Z,17.70
2018-06-13T12:40:11.246Z,18.00
2018-06-13T12:42:39.174Z,17.70
2018-06-13T12:45:06.967Z,17.60
2018-06-13T12:47:34.747Z,17.50
2018-06-13T12:50:02.639Z,17.10
2018-06-13T12:52:30.538Z,17.20
2018-06-13T12:54:58.280Z,17.10
2018-06-13T12:57:26.090Z,16.90
2018-06-13T12:59:53.826Z,16.90
2018-06-13T13:02:21.646Z,16.80
2018-06-13T13:04:49.337Z,16.60
2018-06-13T13:07:17.101Z,16.70
2018-06-13T13:09:44.882Z,16.90
2018-06-13T13:12:12.729Z,16.80
2018-06-13T13:14:40.493Z,16.70
2018-06-13T13:17:08.370Z,16.80
2018-06-13T13:19:36.127Z,16.90
2018-06-13T13:22:03.863Z,17.00
2018-06-13T13:24:31.632Z,16.90
2018-06-13T13:26:59.445Z,17.20
2018-06-13T13:29:27.160Z,17.30
2018-06-13T13:31:55.015Z,17.50
2018-06-13T13:34:22.860Z,17.50
2018-06-13T13:36:50.668Z,17.40
2018-06-13T13:39:18.489Z,17.60
2018-06-13T13:41:46.195Z,17.50
2018-06-13T13:44:13.980Z,17.60
2018-06-13T13:46:41.683Z,17.50
2018-06-13T13:49:09.501Z,17.50
2018-06-13T13:51:37.339Z,17.70
2018-06-13T13:54:05.209Z,17.80
2018-06-13T13:56:33.202Z,17.80
2018-06-13T13:59:00.942Z,17.60
2018-06-13T14:01:28.717Z,17.40
2018-06-13T14:03:56.481Z,17.20
2018-06-13T14:06:24.405Z,17.00
2018-06-13T14:08:52.162Z,16.70
2018-06-13T14:11:20.050Z,16.80
2018-06-13T14:13:47.796Z,17.00
2018-06-13T14:16:15.566Z,16.90
2018-06-13T14:18:43.320Z,17.10
2018-06-13T14:21:11.089Z,17.20
2018-06-13T14:23:38.851Z,17.30
2018-06-13T14:26:07.071Z,17.30
2018-06-13T14:28:34.680Z,17.30
2018-06-13T14:31:02.490Z,17.30
2018-06-13T14:33:32.034Z,17.20
2018-06-13T14:36:04.837Z,17.00
2018-06-13T14:38:32.742Z,16.90
2018-06-13T14:43:28.200Z,16.80
2018-06-13T14:45:56.013Z,16.60
2018-06-13T14:48:24.476Z,16.70
2018-06-13T14:50:52.173Z,16.80
2018-06-13T14:53:20.075Z,16.90
2018-06-13T14:55:53.426Z,16.50
2018-06-13T14:58:21.286Z,16.40
2018-06-13T15:00:49.101Z,16.60
2018-06-13T15:03:16.950Z,16.80
2018-06-13T15:05:44.700Z,16.80
2018-06-13T15:08:12.923Z,16.70
2018-06-13T15:10:40.731Z,16.60
2018-06-13T15:13:08.538Z,16.70
2018-06-13T15:15:36.313Z,16.70
2018-06-13T15:18:04.083Z,16.90
2018-06-13T15:20:31.921Z,17.00
2018-06-13T15:22:59.761Z,16.80
2018-06-13T15:25:27.612Z,17.00
2018-06-13T15:27:55.391Z,16.90
2018-06-13T15:30:23.214Z,16.80
2018-06-13T15:32:50.993Z,16.70
2018-06-13T15:35:19.222Z,16.60
2018-06-13T15:37:47.010Z,16.50
2018-06-13T15:40:14.856Z,16.40
2018-06-13T15:42:42.714Z,16.20
2018-06-13T15:45:10.654Z,16.20
2018-06-13T15:47:38.443Z,16.10
2018-06-13T15:50:06.466Z,15.90
2018-06-13T15:52:34.334Z,15.80
2018-06-13T15:55:02.394Z,15.70
2018-06-13T15:59:57.869Z,15.60
2018-06-13T16:02:25.792Z,15.50
2018-06-13T16:04:53.608Z,15.50
2018-06-13T16:07:21.434Z,15.50
2018-06-13T16:09:49.340Z,15.50
2018-06-13T16:12:17.320Z,15.30
2018-06-13T16:14:45.038Z,15.30
2018-06-13T16:17:12.802Z,15.40
2018-06-13T16:19:40.604Z,15.50
2018-06-13T16:22:08.368Z,15.50
2018-06-13T16:24:36.165Z,15.60
2018-06-13T16:27:04.227Z,15.40
2018-06-13T16:29:32.170Z,15.70
2018-06-13T16:32:00.177Z,15.70
2018-06-13T16:34:27.933Z,15.80
2018-06-13T16:36:57.311Z,15.70
2018-06-13T16:41:52.931Z,15.60
2018-06-13T16:44:20.669Z,15.60
2018-06-13T16:46:48.422Z,15.50
2018-06-13T16:49:16.185Z,15.60
2018-06-13T16:51:56.208Z,15.60
2018-06-13T16:54:35.323Z,15.60
2018-06-13T16:57:03.116Z,15.60
2018-06-13T16:59:30.900Z,15.40
2018-06-13T17:01:58.658Z,15.50
2018-06-13T17:04:26.433Z,15.60
2018-06-13T17:06:54.764Z,15.70
2018-06-13T17:09:22.575Z,15.60
2018-06-13T17:11:50.519Z,15.60
2018-06-13T17:14:18.377Z,15.40
2018-06-13T17:16:46.183Z,15.40
2018-06-13T17:19:14.016Z,15.40
2018-06-13T17:21:41.808Z,15.20
2018-06-13T17:24:09.836Z,15.20
2018-06-13T17:26:37.762Z,15.10
2018-06-13T17:29:05.614Z,15.10
2018-06-13T17:31:33.961Z,15.20
2018-06-13T17:34:01.762Z,15.10
2018-06-13T17:36:29.540Z,15.10
2018-06-13T17:38:57.371Z,15.20
2018-06-13T17:41:25.103Z,15.10
2018-06-13T17:43:52.919Z,15.10
2018-06-13T17:46:20.720Z,15.10
2018-06-13T17:48:48.479Z,15.10
2018-06-13T17:51:16.319Z,15.10
2018-06-13T17:53:44.232Z,15.30
2018-06-13T17:56:12.008Z,15.20
2018-06-13T17:58:39.913Z,15.00
2018-06-13T18:01:07.911Z,15.00
2018-06-13T18:06:05.835Z,15.10
2018-06-13T18:08:33.783Z,15.10
2018-06-13T18:11:06.999Z,15.10
2018-06-13T18:13:35.193Z,15.10
2018-06-13T18:16:16.784Z,15.10
2018-06-13T18:18:55.845Z,15.00
2018-06-13T18:21:23.832Z,15.00
2018-06-13T18:24:08.645Z,15.00
2018-06-13T18:26:36.878Z,15.00
2018-06-13T18:29:04.871Z,15.10
2018-06-13T18:31:32.668Z,15.00
2018-06-13T18:34:00.453Z,15.00
2018-06-13T18:36:28.297Z,15.00
2018-06-13T18:38:56.165Z,14.90
2018-06-13T18:41:23.981Z,14.90
2018-06-13T18:43:51.969Z,14.90
2018-06-13T18:46:19.818Z,14.80
2018-06-13T18:48:47.801Z,14.70
2018-06-13T18:51:16.445Z,14.80
2018-06-13T18:53:44.246Z,14.90
2018-06-13T18:56:12.116Z,14.80
2018-06-13T18:58:40.087Z,14.80
2018-06-13T19:01:07.895Z,14.80
2018-06-13T19:03:35.629Z,14.70
2018-06-13T19:06:03.557Z,14.70
2018-06-13T19:08:31.391Z,14.60
2018-06-13T19:13:27.103Z,14.50
2018-06-13T19:15:54.889Z,14.60
2018-06-13T19:20:50.310Z,14.50
2018-06-13T19:23:18.104Z,14.50
2018-06-13T19:25:45.984Z,14.40
2018-06-13T19:28:13.897Z,14.40
2018-06-13T19:30:41.841Z,14.40
2018-06-13T19:33:12.290Z,14.40
2018-06-13T19:35:40.061Z,14.30
2018-06-13T19:38:08.079Z,14.30
2018-06-13T19:40:35.974Z,14.30
2018-06-13T19:43:07.866Z,14.30
2018-06-13T19:45:35.813Z,14.30
2018-06-13T19:48:09.169Z,14.30
2018-06-13T19:50:37.270Z,14.30
2018-06-13T19:53:10.792Z,14.20
2018-06-13T19:55:44.115Z,14.10
2018-06-13T19:58:12.243Z,14.10
2018-06-13T20:00:40.155Z,14.20
2018-06-13T20:03:14.650Z,14.20
2018-06-13T20:05:43.142Z,14.20
2018-06-13T20:08:11.291Z,14.10
2018-06-13T20:10:39.171Z,14.10
2018-06-13T20:13:12.715Z,14.10
2018-06-13T20:15:46.213Z,14.10
2018-06-13T20:18:19.677Z,14.10
2018-06-13T20:20:47.435Z,14.00
2018-06-13T20:23:15.182Z,14.00
2018-06-13T20:25:48.868Z,14.00
2018-06-13T20:28:22.216Z,14.00
2018-06-13T20:30:55.751Z,14.00
2018-06-13T20:33:23.629Z,14.00
2018-06-13T20:35:51.979Z,13.90
2018-06-13T20:38:19.847Z,14.00
2018-06-13T20:40:47.642Z,13.90
2018-06-13T20:43:15.398Z,13.90
2018-06-13T20:45:43.239Z,13.90
2018-06-13T20:48:11.194Z,13.90
2018-06-13T20:50:38.951Z,13.90
2018-06-13T20:53:06.741Z,13.80
2018-06-13T20:55:34.506Z,13.80
2018-06-13T20:58:02.383Z,13.80
2018-06-13T21:00:30.336Z,13.80
2018-06-13T21:02:58.130Z,13.80
2018-06-13T21:05:25.912Z,13.80
2018-06-13T21:07:54.018Z,13.80
2018-06-13T21:10:22.277Z,13.70
2018-06-13T21:12:50.250Z,13.80
2018-06-13T21:15:18.219Z,13.80
2018-06-13T21:17:46.180Z,13.80
2018-06-13T21:20:14.148Z,13.70
2018-06-13T21:22:42.125Z,13.70
2018-06-13T21:27:37.747Z,13.70
2018-06-13T21:30:05.920Z,13.70
2018-06-13T21:32:33.806Z,13.70
2018-06-13T21:35:01.875Z,13.70
2018-06-13T21:37:29.926Z,13.70
2018-06-13T21:39:57.998Z,13.70
2018-06-13T21:42:25.862Z,13.70
2018-06-13T21:44:54.351Z,13.60
2018-06-13T21:47:22.210Z,13.60
2018-06-13T21:49:51.203Z,13.60
2018-06-13T21:52:19.067Z,13.60
2018-06-13T21:54:46.934Z,13.70
2018-06-13T21:57:14.902Z,13.60
2018-06-13T21:59:42.972Z,13.60
2018-06-13T22:02:11.048Z,13.50
2018-06-13T22:04:39.062Z,13.40
2018-06-13T22:07:07.186Z,13.50
2018-06-13T22:09:35.156Z,13.50
2018-06-13T22:12:03.021Z,13.50
2018-06-13T22:17:21.950Z,13.50
2018-06-13T22:19:50.176Z,13.50
2018-06-13T22:22:18.409Z,13.60
2018-06-13T22:24:46.685Z,13.70
2018-06-13T22:27:15.007Z,13.70
2018-06-13T22:32:11.203Z,13.70
2018-06-13T22:34:39.523Z,13.70
2018-06-13T22:37:07.861Z,13.70
2018-06-13T22:39:36.097Z,13.70
2018-06-13T22:42:04.351Z,13.60
2018-06-13T22:44:32.895Z,13.60
2018-06-13T22:47:01.180Z,13.50
2018-06-13T22:49:29.515Z,13.50
2018-06-13T22:51:57.662Z,13.50
2018-06-13T22:54:25.730Z,13.50
2018-06-13T22:56:53.875Z,13.40
2018-06-13T22:59:28.706Z,13.50
2018-06-13T23:01:56.769Z,13.50
2018-06-13T23:04:24.661Z,13.50
2018-06-13T23:06:52.621Z,13.50
2018-06-13T23:09:20.579Z,13.40
2018-06-13T23:11:48.549Z,13.30
2018-06-13T23:14:16.383Z,13.30
2018-06-13T23:16:44.385Z,13.30
2018-06-13T23:19:12.360Z,13.40
2018-06-13T23:21:40.180Z,13.40
2018-06-13T23:24:08.097Z,13.40
2018-06-13T23:26:36.067Z,13.40
2018-06-13T23:29:04.149Z,13.40
2018-06-13T23:31:32.203Z,13.30
2018-06-13T23:34:00.263Z,13.40
2018-06-13T23:36:28.247Z,13.50
2018-06-13T23:38:56.219Z,13.50
2018-06-13T23:41:24.381Z,13.50
2018-06-13T23:43:52.452Z,13.50
2018-06-13T23:46:20.321Z,13.40
2018-06-13T23:48:48.184Z,13.30
2018-06-13T23:51:16.120Z,13.30
2018-06-13T23:53:44.128Z,13.30
2018-06-13T23:56:12.189Z,13.30
2018-06-13T23:58:40.259Z,13.20
